Time;durP1;ratioP1;P1;durP2;ratioP2;P2;SDS_P1;SDS_P2;PMS_P1;PMS_P2;Temp;Humidity;BMP_temperature;BMP_pressure;BME280_temperature;BME280_humidity;BME280_pressure;Samples;Min_cycle;Max_cycle;Signal;HPM_P1;HPM_P2
2022/08/12 00:44:52;;;;;;;22.98;17.50;;;;;;;24.27;83.30;99810.63;5121021;28;20456;-73
2022/08/12 00:47:18;;;;;;;24.65;17.13;;;;;;;24.20;83.34;99815.38;5121763;28;20066;-73
2022/08/12 00:49:45;;;;;;;28.58;17.92;;;;;;;24.29;83.17;99818.50;5121608;28;20043;-73
2022/08/12 00:52:12;;;;;;;19.45;16.42;;;;;;;24.09;84.71;99816.28;5120583;28;20351;-73
2022/08/12 00:54:44;;;;;;;21.65;17.67;;;;;;;24.31;83.55;99810.94;5121146;28;20023;-73
2022/08/12 00:57:24;;;;;;;24.42;17.77;;;;;;;24.41;83.01;99819.19;5121891;28;20275;-73
2022/08/12 00:59:59;;;;;;;26.58;17.67;;;;;;;24.49;82.53;99810.66;5121552;28;20057;-73
2022/08/12 01:02:34;;;;;;;19.15;16.70;;;;;;;24.47;82.44;99810.06;5121615;28;20220;-73
2022/08/12 01:13:20;;;;;;;21.73;16.58;;;;;;;24.44;81.76;99819.53;5122139;28;20209;-73
2022/08/12 01:15:49;;;;;;;21.60;17.23;;;;;;;24.54;81.66;99823.44;5120188;28;20063;-73
2022/08/12 01:18:16;;;;;;;20.88;16.65;;;;;;;24.45;81.66;99823.84;5120719;28;20252;-73
2022/08/12 01:20:48;;;;;;;21.85;16.75;;;;;;;24.54;81.88;99821.53;5121767;28;20229;-73
2022/08/12 01:23:44;;;;;;;22.38;17.10;;;;;;;24.59;81.62;99821.59;5102553;28;20210;-73
2022/08/12 01:26:22;;;;;;;21.85;16.80;;;;;;;24.44;82.00;99826.81;5122680;28;20035;-73
2022/08/12 01:28:49;;;;;;;21.75;16.92;;;;;;;24.39;81.88;99826.75;5120670;28;20031;-73
2022/08/12 01:31:17;;;;;;;22.85;16.00;;;;;;;24.32;81.73;99815.28;5117790;28;20027;-73
2022/08/12 01:34:02;;;;;;;17.42;15.07;;;;;;;24.12;82.46;99811.22;5120956;28;20035;-73
2022/08/12 01:36:34;;;;;;;19.17;14.05;;;;;;;24.25;81.78;99820.03;5121195;28;20035;-73
2022/08/12 01:39:00;;;;;;;17.67;14.15;;;;;;;24.35;80.54;99810.19;5120063;28;20484;-73
2022/08/12 01:41:30;;;;;;;18.02;13.70;;;;;;;24.23;81.45;99814.06;5120926;28;20034;-73
2022/08/12 01:44:02;;;;;;;17.30;13.45;;;;;;;24.23;81.56;99812.16;5120125;28;20066;-73
2022/08/12 01:46:51;;;;;;;20.30;13.45;;;;;;;24.22;81.59;99810.53;5119026;28;20043;-73
2022/08/12 01:49:36;;;;;;;20.15;13.70;;;;;;;24.24;81.32;99802.16;5119925;28;20026;-73
2022/08/12 01:52:04;;;;;;;19.23;13.93;;;;;;;24.23;81.38;99803.22;5122986;28;20042;-73
2022/08/12 01:54:38;;;;;;;19.65;14.18;;;;;;;24.23;81.36;99805.94;5121433;28;20040;-73
2022/08/12 01:57:09;;;;;;;19.85;13.73;;;;;;;24.20;81.37;99804.56;5119728;28;20040;-73
2022/08/12 02:00:05;;;;;;;19.08;13.60;;;;;;;24.17;81.71;99805.88;5119693;28;20027;-73
2022/08/12 02:02:56;;;;;;;22.17;14.77;;;;;;;24.14;80.40;99798.25;5117948;28;20056;-73
2022/08/12 02:11:21;;;;;;;17.38;13.63;;;;;;;23.65;81.54;99796.41;5118676;28;20029;-73
2022/08/12 02:14:11;;;;;;;15.27;13.43;;;;;;;23.61;83.00;99795.25;5117736;28;20032;-73
2022/08/12 02:17:14;;;;;;;14.05;12.40;;;;;;;23.63;81.39;99785.00;5120364;28;20252;-73
2022/08/12 02:20:11;;;;;;;18.95;13.88;;;;;;;23.60;82.05;99783.63;5117921;28;20035;-73
2022/08/12 02:22:46;;;;;;;18.95;14.05;;;;;;;23.61;82.67;99793.38;5120034;28;20036;-73
2022/08/12 02:25:32;;;;;;;19.63;15.40;;;;;;;23.52;83.69;99790.22;5119707;28;20102;-73
2022/08/12 02:27:59;;;;;;;20.35;14.90;;;;;;;23.54;84.31;99796.22;5119704;28;20055;-73
2022/08/12 02:30:28;;;;;;;27.20;14.10;;;;;;;23.60;83.94;99799.03;5122122;28;20020;-73
2022/08/12 02:32:55;;;;;;;22.45;16.00;;;;;;;23.50;84.45;99792.34;5119036;28;20031;-73
2022/08/12 02:35:28;;;;;;;21.50;15.75;;;;;;;23.58;84.50;99790.34;5120486;28;20183;-73
2022/08/12 02:37:56;;;;;;;19.92;15.90;;;;;;;23.61;84.28;99798.78;5120541;28;20325;-73
2022/08/12 02:40:24;;;;;;;21.60;16.33;;;;;;;23.71;83.62;99792.69;5122480;28;20028;-73
2022/08/12 02:43:10;;;;;;;24.85;17.77;;;;;;;23.52;84.26;99797.50;5120159;28;20063;-73
2022/08/12 02:45:46;;;;;;;21.02;16.60;;;;;;;23.38;85.16;99783.50;5118388;28;20107;-73
2022/08/12 02:48:23;;;;;;;21.58;16.85;;;;;;;23.64;83.71;99805.56;5118800;28;20031;-73
2022/08/12 02:50:51;;;;;;;22.63;17.35;;;;;;;23.67;83.06;99795.09;5100378;28;20259;-73
2022/08/12 02:53:17;;;;;;;23.60;17.05;;;;;;;23.58;83.75;99795.75;5120242;28;20054;-73
2022/08/12 02:55:44;;;;;;;22.30;17.30;;;;;;;23.55;83.78;99803.28;5118318;28;20293;-73
2022/08/12 02:58:11;;;;;;;25.55;17.73;;;;;;;23.51;84.08;99795.88;5117824;28;20216;-73
2022/08/12 03:00:38;;;;;;;27.17;17.88;;;;;;;23.47;84.27;99800.13;5100901;28;20027;-73
2022/08/12 03:03:12;;;;;;;25.77;18.30;;;;;;;23.63;83.23;99809.34;5118534;27;20151;-73
2022/08/12 03:05:48;;;;;;;24.45;17.65;;;;;;;23.59;83.55;99805.50;5118301;28;20100;-73
2022/08/12 03:08:17;;;;;;;22.02;17.42;;;;;;;23.48;83.04;99805.28;5116606;28;20031;-73
2022/08/12 03:10:48;;;;;;;22.25;16.67;;;;;;;23.52;82.26;99811.03;5119828;28;20039;-73
2022/08/12 03:13:16;;;;;;;22.02;16.20;;;;;;;23.38;80.90;99813.22;5119077;28;20217;-73
2022/08/12 03:15:43;;;;;;;26.25;14.75;;;;;;;23.32;80.87;99813.38;5118086;28;20038;-73
2022/08/12 03:18:14;;;;;;;22.83;14.85;;;;;;;23.35;80.94;99813.72;5120909;28;20363;-73
2022/08/12 03:20:40;;;;;;;19.58;15.77;;;;;;;23.31;81.53;99817.16;5121385;28;20039;-73
2022/08/12 03:23:11;;;;;;;21.45;16.73;;;;;;;23.32;82.76;99816.06;5118960;28;20043;-73
2022/08/12 03:25:39;;;;;;;21.85;16.92;;;;;;;23.39;82.74;99814.03;5118346;28;20031;-73
2022/08/12 03:28:08;;;;;;;25.00;17.70;;;;;;;23.21;83.75;99813.19;5118092;28;20115;-73
2022/08/12 03:30:35;;;;;;;26.20;18.27;;;;;;;23.23;84.11;99818.34;5118418;28;20095;-73
2022/08/12 03:33:03;;;;;;;26.83;18.05;;;;;;;23.17;84.40;99812.03;5118120;28;20035;-73
2022/08/12 03:35:32;;;;;;;24.83;18.42;;;;;;;23.22;84.22;99811.31;5100523;28;20016;-73
2022/08/12 03:38:00;;;;;;;27.48;19.38;;;;;;;23.28;83.79;99804.94;5121360;28;20035;-73
2022/08/12 04:00:24;;;;;;;24.17;19.15;;;;;;;23.28;84.77;99820.34;5116301;28;20035;-74
2022/08/12 04:03:00;;;;;;;26.70;17.92;;;;;;;23.30;84.62;99810.91;5116694;28;20043;-73
2022/08/12 04:05:26;;;;;;;25.70;17.92;;;;;;;23.41;83.70;99804.63;5117751;28;20027;-73
2022/08/12 04:07:52;;;;;;;23.00;17.95;;;;;;;23.40;83.45;99807.56;5118657;28;20307;-73
2022/08/12 04:10:18;;;;;;;25.05;17.88;;;;;;;23.47;83.38;99811.75;5121636;28;20047;-73
2022/08/12 04:15:39;;;;;;;24.17;17.95;;;;;;;23.56;83.28;99820.31;5124893;28;20038;-73
2022/08/12 04:18:05;;;;;;;21.95;17.05;;;;;;;23.54;83.40;99828.66;5122321;28;20292;-73
2022/08/12 04:20:30;;;;;;;26.73;17.85;;;;;;;23.47;82.76;99794.72;5122298;28;20053;-73
2022/08/12 04:22:57;;;;;;;22.20;17.77;;;;;;;23.67;82.55;99829.41;5122521;28;20032;-73
2022/08/12 04:25:24;;;;;;;27.77;19.02;;;;;;;23.63;82.63;99820.97;5121626;28;20027;-73
2022/08/12 04:27:49;;;;;;;28.35;18.77;;;;;;;23.67;82.63;99826.69;5122387;28;20035;-73
2022/08/12 04:30:15;;;;;;;23.20;18.25;;;;;;;23.83;82.28;99834.00;5121431;28;20035;-73
2022/08/12 04:32:41;;;;;;;24.08;17.80;;;;;;;24.02;81.14;99824.59;5121412;28;20039;-73
2022/08/12 04:35:07;;;;;;;28.40;18.38;;;;;;;23.98;81.26;99836.16;5122169;28;20035;-73
2022/08/12 04:37:33;;;;;;;25.02;16.63;;;;;;;24.06;80.74;99836.53;5122306;28;20037;-73
2022/08/12 04:39:59;;;;;;;24.50;17.92;;;;;;;24.07;81.18;99840.06;5121439;28;20027;-73
2022/08/12 04:42:25;;;;;;;24.98;17.85;;;;;;;24.22;81.23;99842.19;5122454;28;20333;-73
2022/08/12 04:44:51;;;;;;;27.13;17.25;;;;;;;24.25;80.57;99844.38;5122945;28;20280;-73
2022/08/12 04:47:18;;;;;;;23.75;16.70;;;;;;;24.24;80.31;99837.34;5124157;28;20069;-73
2022/08/12 04:49:46;;;;;;;22.25;15.48;;;;;;;24.18;81.06;99847.28;5123464;28;20035;-73
2022/08/12 04:52:12;;;;;;;22.67;15.68;;;;;;;24.34;80.48;99837.50;5124827;28;20228;-73
2022/08/12 04:54:38;;;;;;;23.10;15.50;;;;;;;24.47;79.95;99846.09;5122608;28;20097;-73
2022/08/12 04:57:04;;;;;;;25.95;15.05;;;;;;;24.48;79.87;99850.44;5121602;28;20046;-73
2022/08/12 04:59:31;;;;;;;15.23;12.20;;;;;;;24.72;77.37;99836.66;5102710;28;20297;-73
2022/08/12 05:01:57;;;;;;;16.10;11.23;;;;;;;24.75;76.14;99846.97;5121887;28;20047;-73
2022/08/12 05:04:26;;;;;;;14.35;11.70;;;;;;;24.86;75.36;99840.59;5120721;28;20046;-73
2022/08/12 05:06:51;;;;;;;16.73;11.70;;;;;;;25.00;73.04;99855.47;5117704;28;20103;-71
2022/08/12 05:09:17;;;;;;;17.92;12.52;;;;;;;24.83;72.88;99851.94;5122048;28;20026;-73
2022/08/12 05:11:46;;;;;;;15.05;12.00;;;;;;;24.82;73.01;99848.41;5120507;27;20031;-73
2022/08/12 05:14:12;;;;;;;16.95;12.82;;;;;;;24.91;73.56;99851.50;5123990;28;20031;-73
2022/08/12 05:16:38;;;;;;;14.10;12.18;;;;;;;25.14;73.40;99853.16;5123614;28;20129;-73
2022/08/12 05:19:04;;;;;;;15.18;11.45;;;;;;;25.23;72.16;99854.34;5120397;28;20032;-73
2022/08/12 05:21:30;;;;;;;14.90;11.32;;;;;;;25.33;71.72;99856.34;5120071;28;20027;-73
2022/08/12 05:23:55;;;;;;;14.70;11.02;;;;;;;25.13;70.23;99856.94;5121357;28;20042;-73
2022/08/12 05:26:21;;;;;;;16.13;10.85;;;;;;;25.36;70.59;99864.78;5119983;28;20243;-71
2022/08/12 05:28:47;;;;;;;20.35;11.98;;;;;;;25.69;70.03;99866.47;5122500;28;20038;-73
2022/08/12 05:31:15;;;;;;;17.63;11.75;;;;;;;25.76;68.70;99858.13;5120066;28;20147;-73
2022/08/12 05:33:40;;;;;;;14.77;10.85;;;;;;;25.93;68.04;99863.41;5121480;28;20036;-73
2022/08/12 05:36:08;;;;;;;10.10;8.68;;;;;;;26.29;66.32;99873.47;5105336;28;20032;-73
2022/08/12 05:41:19;;;;;;;10.40;9.10;;;;;;;26.72;64.86;99863.41;5118953;28;20335;-71
2022/08/12 05:46:22;;;;;;;12.63;9.90;;;;;;;26.93;62.82;99862.38;5012347;23;20050;-72
2022/08/12 05:48:49;;;;;;;12.25;10.55;;;;;;;26.82;63.62;99863.44;5019037;28;20088;-72
2022/08/12 05:51:15;;;;;;;14.55;10.20;;;;;;;26.93;63.26;99858.84;5023773;28;20021;-72
2022/08/12 05:53:41;;;;;;;14.43;10.55;;;;;;;27.11;62.87;99861.16;5024127;28;20026;-72
2022/08/12 05:56:18;;;;;;;15.75;11.77;;;;;;;27.29;62.04;99866.09;5023823;28;20060;-72
2022/08/12 05:58:45;;;;;;;13.90;10.93;;;;;;;27.51;61.32;99873.19;5022961;28;20068;-72
2022/08/12 06:01:10;;;;;;;15.13;10.98;;;;;;;27.51;60.55;99863.13;5017100;28;20052;-72
2022/08/12 06:03:36;;;;;;;15.70;11.40;;;;;;;27.10;60.49;99854.09;5023884;28;20034;-72
2022/08/12 06:06:02;;;;;;;15.82;11.20;;;;;;;27.31;61.18;99849.50;5023472;28;20032;-73
2022/08/12 06:08:27;;;;;;;14.23;11.43;;;;;;;27.40;61.13;99856.03;5023673;28;20034;-72
2022/08/12 06:10:54;;;;;;;18.50;10.68;;;;;;;27.49;60.41;99848.16;5021364;28;20064;-72
2022/08/12 06:13:19;;;;;;;11.32;9.40;;;;;;;27.80;58.99;99844.41;5023710;28;20045;-73
2022/08/12 06:15:45;;;;;;;11.00;7.93;;;;;;;27.87;56.90;99855.81;5022635;28;20338;-73
2022/08/12 06:18:11;;;;;;;12.63;8.55;;;;;;;27.61;57.85;99856.91;5023589;28;20029;-72
2022/08/12 06:20:37;;;;;;;13.52;8.95;;;;;;;28.16;57.08;99858.81;5023207;28;20034;-72
2022/08/12 06:23:04;;;;;;;12.52;10.23;;;;;;;28.48;56.14;99854.94;5022416;28;20239;-72
2022/08/12 06:25:30;;;;;;;9.98;8.18;;;;;;;28.45;54.07;99855.50;5023643;28;20057;-73
2022/08/12 06:27:57;;;;;;;9.68;8.68;;;;;;;28.44;55.00;99853.88;5023323;28;20045;-72
2022/08/12 06:30:25;;;;;;;9.43;8.45;;;;;;;28.36;53.40;99854.44;5023336;28;20304;-72
2022/08/12 06:32:51;;;;;;;10.02;8.63;;;;;;;28.18;53.75;99851.19;5023267;28;20033;-73
2022/08/12 06:35:17;;;;;;;11.85;9.88;;;;;;;28.49;53.88;99846.50;5023301;28;20092;-72
2022/08/12 06:37:49;;;;;;;9.00;7.38;;;;;;;28.64;52.97;99855.72;5023193;28;20113;-73
2022/08/12 06:42:46;;;;;;;15.20;7.20;;;;;;;28.61;51.97;99848.91;5010477;28;20030;-73
2022/08/12 06:43:01;;;;;;;8.57;6.80;;;;;;;29.13;51.04;99851.16;5004939;28;20234;-72
2022/08/12 06:45:27;;;;;;;9.70;6.90;;;;;;;29.11;49.82;99849.78;5003076;28;20041;-73
2022/08/12 06:47:53;;;;;;;8.02;7.22;;;;;;;29.07;50.47;99852.25;5005906;28;20139;-72
2022/08/12 06:50:19;;;;;;;7.80;7.00;;;;;;;29.28;49.42;99853.00;5003312;28;20097;-73
2022/08/12 06:52:45;;;;;;;8.38;6.28;;;;;;;29.60;47.91;99836.16;5003493;28;20110;-72
2022/08/12 06:55:14;;;;;;;7.80;6.30;;;;;;;29.69;48.53;99847.25;5001660;28;20101;-73
2022/08/12 06:58:00;;;;;;;9.38;6.68;;;;;;;29.99;46.67;99838.81;5003286;28;20064;-72
2022/08/12 07:00:37;;;;;;;7.45;6.40;;;;;;;30.16;46.97;99844.66;5005627;28;20042;-73
2022/08/12 07:03:04;;;;;;;9.35;5.55;;;;;;;30.59;43.86;99833.88;5004823;28;20033;-73
2022/08/12 07:05:30;;;;;;;7.72;6.50;;;;;;;30.63;46.01;99828.63;5003404;28;20276;-73
2022/08/12 07:08:02;;;;;;;9.85;6.55;;;;;;;30.77;45.18;99829.53;5004685;28;20109;-72
2022/08/12 07:10:31;;;;;;;7.20;6.03;;;;;;;30.67;45.28;99825.03;5003827;28;20274;-73
2022/08/12 07:13:00;;;;;;;7.90;6.28;;;;;;;30.96;43.91;99824.09;5002851;28;20435;-73
2022/08/12 07:15:27;;;;;;;7.55;5.68;;;;;;;31.17;42.82;99821.91;5003009;28;20197;-73
2022/08/12 07:17:59;;;;;;;9.55;6.18;;;;;;;31.23;42.87;99826.22;5001609;28;20081;-72
2022/08/12 07:20:29;;;;;;;6.97;6.05;;;;;;;31.22;42.20;99821.84;5002049;28;20327;-73
2022/08/12 07:22:55;;;;;;;7.88;6.47;;;;;;;31.17;42.29;99814.50;5003245;28;20315;-73
2022/08/12 07:25:30;;;;;;;7.18;6.47;;;;;;;31.10;43.01;99814.84;5001801;28;20095;-72
2022/08/12 07:27:57;;;;;;;7.68;6.68;;;;;;;31.03;43.60;99817.16;5003877;28;20058;-73
2022/08/12 07:30:23;;;;;;;10.35;6.93;;;;;;;31.22;42.04;99817.19;5003803;28;20053;-73
2022/08/12 07:32:50;;;;;;;6.80;6.00;;;;;;;31.40;41.90;99812.81;5002850;28;20280;-73
2022/08/12 07:35:19;;;;;;;8.93;6.90;;;;;;;31.47;40.99;99810.53;5003090;28;20402;-73
2022/08/12 07:37:46;;;;;;;9.05;6.93;;;;;;;31.16;41.44;99812.88;5003487;28;20039;-73
2022/08/12 07:40:12;;;;;;;7.63;6.05;;;;;;;31.21;41.36;99810.09;5003476;28;20049;-72
2022/08/12 07:42:42;;;;;;;8.88;6.30;;;;;;;31.51;40.35;99806.06;5003426;28;20394;-73
2022/08/12 07:45:08;;;;;;;7.35;5.97;;;;;;;31.55;41.32;99798.06;5002516;28;20518;-73
2022/08/12 07:47:34;;;;;;;7.28;5.70;;;;;;;31.78;39.07;99794.41;5003440;28;20034;-73
2022/08/12 07:50:01;;;;;;;7.28;6.03;;;;;;;31.92;40.21;99795.25;5003560;28;20035;-73
2022/08/12 07:52:27;;;;;;;9.85;6.47;;;;;;;31.79;40.52;99796.03;5003105;28;20154;-73
2022/08/12 07:54:53;;;;;;;7.55;6.32;;;;;;;31.84;38.41;99798.69;5005271;28;20033;-73
2022/08/12 07:57:19;;;;;;;7.25;5.72;;;;;;;32.11;38.36;99788.88;5004034;28;20040;-73
2022/08/12 07:59:44;;;;;;;6.97;5.28;;;;;;;32.24;37.82;99786.19;5003860;28;20038;-73
2022/08/12 08:02:10;;;;;;;5.95;5.20;;;;;;;32.35;36.50;99782.16;5002518;28;20038;-73
2022/08/12 08:07:21;;;;;;;8.55;5.30;;;;;;;32.49;35.72;99781.31;5002652;28;20044;-73
2022/08/12 08:09:46;;;;;;;8.52;4.55;;;;;;;32.54;35.11;99782.03;5002428;28;20303;-73
2022/08/12 08:14:57;;;;;;;;;;;;;;;32.34;32.24;99780.53;5001083;28;20105;-73
2022/08/12 08:17:23;;;;;;;4.03;3.40;;;;;;;31.95;34.42;99778.22;5003185;28;19921;-72
2022/08/12 08:19:51;;;;;;;4.65;3.47;;;;;;;31.83;34.22;99774.34;5002419;28;20033;-72
2022/08/12 08:22:20;;;;;;;4.38;3.97;;;;;;;31.85;34.47;99766.66;5001891;28;20090;-73
2022/08/12 08:24:55;;;;;;;4.03;3.38;;;;;;;31.78;34.25;99766.22;5000628;28;20101;-73
2022/08/12 08:27:21;;;;;;;7.57;4.10;;;;;;;31.66;35.27;99772.16;5001639;28;20254;-73
2022/08/12 08:29:46;;;;;;;4.78;3.38;;;;;;;31.56;34.77;99769.59;5002568;28;20066;-73
2022/08/12 08:32:12;;;;;;;6.72;3.35;;;;;;;31.77;34.55;99757.19;5003671;28;20027;-73
2022/08/12 08:34:37;;;;;;;3.92;3.63;;;;;;;32.14;33.16;99766.38;5002687;28;20050;-72
2022/08/12 08:37:03;;;;;;;3.22;2.92;;;;;;;32.23;34.81;99757.13;5010718;28;20037;-73
2022/08/12 08:39:30;;;;;;;8.43;3.40;;;;;;;32.38;33.14;99756.88;5020474;28;20038;-73
2022/08/12 08:44:40;;;;;;;;;;;;;;;32.54;33.88;99756.56;5003142;28;20105;-73
2022/08/12 08:47:07;;;;;;;3.40;3.03;;;;;;;32.61;31.53;99745.97;5002328;28;19921;-73
2022/08/12 08:49:35;;;;;;;4.40;3.67;;;;;;;32.63;33.65;99751.97;5002607;28;20038;-73
2022/08/12 08:52:01;;;;;;;4.30;3.35;;;;;;;32.87;31.84;99751.72;5005390;28;20034;-73
2022/08/12 08:54:30;;;;;;;4.25;3.05;;;;;;;32.92;31.25;99744.19;5000696;28;20030;-73
2022/08/12 08:56:55;;;;;;;4.70;2.30;;;;;;;32.66;30.35;99740.38;5003511;28;20282;-73
2022/08/12 08:59:21;;;;;;;2.90;2.13;;;;;;;32.47;30.08;99742.44;5020219;28;20042;-73
2022/08/12 09:01:47;;;;;;;2.72;2.00;;;;;;;31.97;30.58;99742.31;5004697;28;20019;-73
2022/08/12 09:04:13;;;;;;;2.50;1.80;;;;;;;31.52;30.90;99733.81;5006302;28;20037;-73
2022/08/12 09:06:40;;;;;;;5.07;2.40;;;;;;;31.32;30.63;99734.16;5004266;28;20038;-73
2022/08/12 09:09:10;;;;;;;4.18;1.80;;;;;;;31.03;30.12;99729.63;5004107;28;20171;-72
2022/08/12 09:14:21;;;;;;;3.22;1.90;;;;;;;31.23;30.67;99716.81;5004954;28;20033;-72
2022/08/12 09:16:49;;;;;;;3.95;1.90;;;;;;;31.31;31.60;99714.19;5007143;28;20057;-72
2022/08/12 09:19:16;;;;;;;3.97;1.90;;;;;;;31.57;30.92;99713.75;5008111;28;20064;-73
2022/08/12 09:21:45;;;;;;;2.25;1.88;;;;;;;31.68;29.71;99710.53;5005201;28;20045;-72
2022/08/12 09:24:11;;;;;;;4.45;2.03;;;;;;;31.93;30.35;99711.19;5005288;28;20220;-73
2022/08/12 09:26:37;;;;;;;2.05;1.85;;;;;;;32.16;29.36;99710.16;5006009;28;20049;-73
2022/08/12 09:29:03;;;;;;;2.95;1.92;;;;;;;32.29;29.76;99716.78;5005970;28;20034;-73
2022/08/12 09:31:29;;;;;;;2.38;2.03;;;;;;;31.96;29.24;99707.81;5005557;28;20033;-73
2022/08/12 09:33:55;;;;;;;3.55;2.30;;;;;;;31.82;30.51;99710.56;5005291;28;20255;-72
2022/08/12 09:36:21;;;;;;;4.70;2.10;;;;;;;31.59;31.65;99715.06;5004807;28;20275;-73
2022/08/12 09:38:47;;;;;;;4.00;1.88;;;;;;;31.25;30.23;99715.41;5006267;28;20073;-72
2022/08/12 09:41:14;;;;;;;4.78;1.95;;;;;;;31.26;30.71;99703.34;5004546;28;20335;-72
2022/08/12 09:46:33;;;;;;;6.40;2.13;;;;;;;31.32;31.24;99706.81;5004784;28;20053;-73
2022/08/12 09:48:58;;;;;;;3.45;1.90;;;;;;;31.37;30.90;99703.97;5003622;28;20031;-73
2022/08/12 09:51:25;;;;;;;7.03;2.13;;;;;;;31.58;30.25;99705.22;5005148;28;20042;-72
2022/08/12 09:53:51;;;;;;;4.22;2.10;;;;;;;31.51;29.52;99695.78;5005246;28;20072;-72
2022/08/12 09:56:17;;;;;;;5.20;2.03;;;;;;;31.06;30.17;99709.09;5006947;28;20042;-72
2022/08/12 09:58:45;;;;;;;4.22;2.10;;;;;;;30.93;30.52;99691.50;5007023;28;20034;-73
2022/08/12 10:01:11;;;;;;;3.22;2.28;;;;;;;31.22;30.99;99694.09;5004595;28;20089;-72
2022/08/12 10:03:42;;;;;;;5.20;1.70;;;;;;;30.90;30.69;99689.38;5006005;28;20041;-72
2022/08/12 10:06:08;;;;;;;2.47;1.88;;;;;;;30.56;32.61;99692.31;5002538;28;20037;-73
2022/08/12 10:08:35;;;;;;;2.63;2.20;;;;;;;30.27;32.06;99700.63;5003442;28;20410;-72
2022/08/12 10:13:51;;;;;;;8.43;2.50;;;;;;;30.23;32.77;99676.94;5005224;28;20089;-72
2022/08/12 10:16:18;;;;;;;3.00;2.20;;;;;;;30.28;33.40;99683.16;5003889;28;20090;-72
2022/08/12 10:19:01;;;;;;;6.35;2.42;;;;;;;30.56;31.45;99675.13;5004452;28;20342;-72
2022/08/12 10:21:40;;;;;;;2.38;2.10;;;;;;;30.62;30.97;99674.78;5004772;28;20254;-73
2022/08/12 10:24:13;;;;;;;4.78;2.17;;;;;;;30.61;31.84;99658.69;5004715;28;20224;-73
2022/08/12 10:29:40;;;;;;;2.42;2.00;;;;;;;30.90;30.04;99655.75;5021894;28;20325;-73
2022/08/12 10:32:19;;;;;;;4.50;2.17;;;;;;;30.98;30.07;99661.34;5013035;28;20034;-72
2022/08/12 10:34:47;;;;;;;2.22;1.88;;;;;;;30.96;30.48;99651.84;5003497;28;20116;-73
2022/08/12 10:37:12;;;;;;;2.83;2.13;;;;;;;31.12;30.50;99645.00;5002357;28;20030;-73
2022/08/12 10:39:39;;;;;;;3.17;2.00;;;;;;;31.36;29.93;99639.44;5004902;28;20168;-72
2022/08/12 10:45:02;;;;;;;2.75;2.15;;;;;;;31.36;29.30;99645.72;5003976;28;20065;-73
2022/08/12 10:47:29;;;;;;;2.42;1.80;;;;;;;31.12;29.76;99631.31;5003399;28;20235;-73
2022/08/12 10:49:57;;;;;;;7.18;1.80;;;;;;;30.77;30.74;99638.19;5002746;28;20205;-72
2022/08/12 10:52:25;;;;;;;2.03;1.83;;;;;;;30.75;30.99;99637.69;5006197;28;20075;-72
2022/08/12 10:54:54;;;;;;;2.17;1.90;;;;;;;30.67;30.88;99632.88;5003348;28;20065;-72
2022/08/12 10:57:22;;;;;;;4.20;1.92;;;;;;;30.72;30.81;99621.88;5003283;28;20077;-73
2022/08/12 10:59:48;;;;;;;3.50;1.95;;;;;;;30.72;31.50;99621.88;5004096;28;20049;-72
2022/08/12 11:02:14;;;;;;;3.00;2.15;;;;;;;30.59;31.18;99625.38;5003631;28;20033;-72
2022/08/12 11:04:40;;;;;;;4.07;2.08;;;;;;;30.79;30.63;99616.84;5003707;28;20050;-72
2022/08/12 11:07:07;;;;;;;7.35;2.58;;;;;;;30.63;30.32;99613.53;5004450;28;20049;-72
2022/08/12 11:09:34;;;;;;;3.75;2.15;;;;;;;30.68;30.95;99615.38;5003246;28;20256;-73
2022/08/12 11:12:05;;;;;;;4.78;2.10;;;;;;;30.50;31.59;99606.06;5003113;28;20312;-72
2022/08/12 11:14:35;;;;;;;4.45;2.10;;;;;;;30.59;32.00;99609.78;5014353;28;20331;-72
2022/08/12 11:17:07;;;;;;;2.75;2.00;;;;;;;30.67;31.46;99598.19;5005854;28;20029;-72
2022/08/12 11:19:35;;;;;;;6.40;3.45;;;;;;;30.94;31.26;99597.44;5002646;28;20037;-73
2022/08/12 11:22:02;;;;;;;4.72;3.08;;;;;;;30.97;31.21;99590.56;5003721;28;20178;-72
2022/08/12 11:24:27;;;;;;;9.15;5.57;;;;;;;31.06;31.04;99586.84;5003196;28;20251;-72
2022/08/12 11:26:54;;;;;;;6.43;2.60;;;;;;;30.93;31.39;99584.88;5002827;28;20312;-72
2022/08/12 11:29:22;;;;;;;3.47;2.53;;;;;;;31.05;30.77;99585.22;5003484;28;20362;-72
2022/08/12 11:31:48;;;;;;;2.35;1.92;;;;;;;31.18;31.24;99582.84;5018136;28;20290;-73
2022/08/12 11:34:15;;;;;;;2.20;1.95;;;;;;;31.36;29.38;99584.72;5002824;28;20045;-73
2022/08/12 11:36:51;;;;;;;2.45;2.25;;;;;;;31.32;29.07;99583.69;5002918;28;20034;-72
2022/08/12 11:39:17;;;;;;;4.07;2.15;;;;;;;31.20;30.43;99577.88;5001278;28;20042;-72
2022/08/12 11:41:43;;;;;;;2.95;2.22;;;;;;;31.30;32.18;99564.03;5002438;28;20073;-73
2022/08/12 11:44:09;;;;;;;2.80;2.20;;;;;;;31.39;30.04;99564.94;5003126;28;20042;-73
2022/08/12 11:46:38;;;;;;;2.50;2.20;;;;;;;31.19;30.20;99568.84;5004959;28;20041;-72
2022/08/12 11:49:06;;;;;;;4.82;2.10;;;;;;;31.27;30.79;99565.44;5001976;28;20042;-72
2022/08/12 11:51:32;;;;;;;5.43;2.60;;;;;;;31.39;30.80;99559.47;5001250;28;20053;-73
2022/08/12 11:53:58;;;;;;;2.65;2.25;;;;;;;31.49;31.08;99561.19;5002113;28;20035;-73
2022/08/12 11:56:24;;;;;;;2.58;2.15;;;;;;;31.50;30.03;99555.41;5002510;28;20037;-73
2022/08/12 11:58:49;;;;;;;5.03;2.97;;;;;;;31.41;30.40;99549.03;5003847;28;20109;-72
2022/08/12 12:01:16;;;;;;;2.63;2.25;;;;;;;31.38;29.15;99544.97;5003755;28;20047;-72
2022/08/12 12:03:41;;;;;;;3.58;2.60;;;;;;;31.31;30.40;99539.13;5002057;28;20080;-73
2022/08/12 12:06:07;;;;;;;3.30;2.00;;;;;;;31.36;31.06;99543.66;5003535;28;20093;-73
2022/08/12 12:08:33;;;;;;;5.25;2.70;;;;;;;31.55;30.07;99544.38;5002365;28;20038;-73
2022/08/12 12:10:58;;;;;;;5.00;2.45;;;;;;;31.53;31.51;99530.19;5001752;28;20243;-73
2022/08/12 12:13:24;;;;;;;3.53;2.42;;;;;;;31.48;31.30;99529.47;5002849;28;20426;-72
2022/08/12 12:15:50;;;;;;;2.58;2.30;;;;;;;31.40;31.75;99531.00;5003027;28;20322;-72
2022/08/12 12:18:20;;;;;;;4.50;2.25;;;;;;;31.44;31.53;99521.06;5003245;28;20315;-73
2022/08/12 12:20:45;;;;;;;4.43;2.60;;;;;;;31.30;31.32;99512.88;5000976;28;20053;-72
2022/08/12 12:23:11;;;;;;;6.40;2.83;;;;;;;31.25;31.29;99514.91;5002219;28;20038;-73
2022/08/12 12:25:36;;;;;;;5.35;2.35;;;;;;;31.35;30.66;99509.22;5001298;28;20038;-73
2022/08/12 12:28:02;;;;;;;2.30;2.08;;;;;;;31.19;30.47;99507.88;5002608;28;20040;-72
2022/08/12 12:30:27;;;;;;;3.55;2.13;;;;;;;31.06;30.97;99495.78;5004923;28;20038;-72
2022/08/12 12:32:53;;;;;;;2.65;2.40;;;;;;;31.17;30.83;99497.25;5005152;28;20045;-72
2022/08/12 12:35:18;;;;;;;5.10;2.58;;;;;;;31.12;30.34;99502.78;5004318;28;20042;-72
2022/08/12 12:37:59;;;;;;;2.88;2.58;;;;;;;31.13;30.51;99488.00;5020889;28;20317;-72
2022/08/12 12:40:26;;;;;;;2.50;2.30;;;;;;;31.24;29.91;99492.19;5006399;28;20409;-72
2022/08/12 12:42:52;;;;;;;7.93;2.38;;;;;;;31.12;30.31;99487.19;5007675;28;20200;-73
2022/08/12 12:45:18;;;;;;;3.92;2.30;;;;;;;31.14;30.35;99489.59;5004408;28;20267;-72
2022/08/12 12:48:04;;;;;;;6.65;2.65;;;;;;;30.99;30.79;99490.72;5004476;28;20097;-72
2022/08/12 12:50:36;;;;;;;3.35;2.30;;;;;;;31.01;30.44;99483.03;5005065;28;20050;-72
2022/08/12 12:53:02;;;;;;;3.50;2.20;;;;;;;30.96;30.67;99477.66;5007242;28;20050;-73
2022/08/12 12:55:29;;;;;;;5.25;2.35;;;;;;;31.00;32.03;99486.06;5007513;28;20030;-72
2022/08/12 12:57:57;;;;;;;3.15;2.60;;;;;;;31.10;31.72;99486.66;5007540;28;20057;-73
2022/08/12 13:00:24;;;;;;;3.42;3.10;;;;;;;30.88;32.36;99475.63;5006156;28;20038;-73
2022/08/12 13:02:54;;;;;;;4.07;2.60;;;;;;;31.04;31.38;99484.34;5007398;28;20022;-73
2022/08/12 13:05:37;;;;;;;4.28;2.53;;;;;;;31.03;30.86;99469.06;5004817;28;20106;-73
2022/08/12 13:08:26;;;;;;;2.92;2.20;;;;;;;31.03;31.07;99467.13;5004003;28;20038;-73
2022/08/12 13:10:54;;;;;;;8.23;2.75;;;;;;;31.14;31.20;99459.53;5004115;28;20053;-73
2022/08/12 13:13:21;;;;;;;3.72;2.45;;;;;;;31.13;32.02;99463.38;5005951;28;20042;-73
2022/08/12 13:15:48;;;;;;;4.05;2.33;;;;;;;31.39;30.55;99460.97;5004865;28;20030;-72
2022/08/12 13:18:17;;;;;;;4.35;2.47;;;;;;;31.40;31.18;99448.91;5004716;28;20105;-72
2022/08/12 13:20:44;;;;;;;3.80;2.33;;;;;;;31.17;31.46;99453.47;5006155;28;20034;-73
2022/08/12 13:23:11;;;;;;;7.50;2.80;;;;;;;31.33;31.30;99449.34;5006304;28;20399;-72